createdAt,value
2023-11-09T00:02:06.683Z,10.38
2023-11-09T00:04:46.877Z,10.32
2023-11-09T00:07:34.281Z,10.33
2023-11-09T00:10:21.511Z,10.33
2023-11-09T00:13:00.064Z,10.25
2023-11-09T00:15:43.299Z,10.32
2023-11-09T00:18:23.337Z,10.29
2023-11-09T00:21:10.120Z,10.27
2023-11-09T00:24:03.724Z,10.28
2023-11-09T00:26:32.516Z,10.23
2023-11-09T00:29:02.019Z,10.23
2023-11-09T00:31:42.398Z,10.06
2023-11-09T00:34:14.875Z,9.97
2023-11-09T00:37:04.270Z,10.01
2023-11-09T00:39:38.294Z,10.04
2023-11-09T00:42:08.809Z,9.95
2023-11-09T00:44:38.694Z,9.92
2023-11-09T00:47:08.449Z,9.92
2023-11-09T00:49:48.675Z,9.90
2023-11-09T00:52:18.539Z,9.85
2023-11-09T00:54:50.906Z,9.92
2023-11-09T00:57:18.846Z,9.93
2023-11-09T00:59:48.150Z,9.93
2023-11-09T01:02:22.348Z,9.91
2023-11-09T01:04:59.073Z,9.92
2023-11-09T01:07:30.526Z,9.87
2023-11-09T01:10:02.396Z,9.76
2023-11-09T01:12:38.851Z,9.73
2023-11-09T01:15:08.900Z,9.77
2023-11-09T01:17:40.184Z,9.79
2023-11-09T01:20:14.806Z,9.73
2023-11-09T01:22:44.555Z,9.73
2023-11-09T01:25:16.630Z,9.69
2023-11-09T01:27:45.375Z,9.71
2023-11-09T01:30:17.452Z,9.61
2023-11-09T01:32:44.789Z,9.69
2023-11-09T01:35:14.185Z,9.72
2023-11-09T01:37:42.523Z,9.69
2023-11-09T01:40:11.569Z,9.69
2023-11-09T01:42:39.169Z,9.65
2023-11-09T01:45:12.554Z,9.66
2023-11-09T01:47:40.864Z,9.67
2023-11-09T01:50:14.020Z,9.66
2023-11-09T01:52:48.269Z,9.63
2023-11-09T01:55:21.875Z,9.64
2023-11-09T01:57:56.985Z,9.65
2023-11-09T02:00:29.321Z,9.63
2023-11-09T02:03:00.242Z,9.62
2023-11-09T02:05:27.879Z,9.61
2023-11-09T02:07:58.235Z,9.51
2023-11-09T02:10:26.342Z,9.46
2023-11-09T02:12:57.745Z,9.45
2023-11-09T02:15:34.206Z,9.49
2023-11-09T02:18:01.774Z,9.46
2023-11-09T02:20:48.059Z,9.41
2023-11-09T02:23:24.523Z,9.43
2023-11-09T02:25:53.748Z,9.40
2023-11-09T02:28:26.129Z,9.38
2023-11-09T02:30:55.414Z,9.34
2023-11-09T02:33:35.143Z,9.33
2023-11-09T02:36:05.431Z,9.32
2023-11-09T02:38:41.325Z,9.27
2023-11-09T02:41:12.453Z,9.32
2023-11-09T02:43:44.643Z,9.31
2023-11-09T02:46:14.110Z,9.19
2023-11-09T02:48:44.233Z,9.32
2023-11-09T02:51:11.856Z,9.30
2023-11-09T02:53:44.846Z,9.30
2023-11-09T02:56:15.645Z,9.28
2023-11-09T02:58:48.081Z,9.21
2023-11-09T03:01:20.804Z,9.27
2023-11-09T03:04:24.075Z,9.21
2023-11-09T03:06:54.220Z,9.17
2023-11-09T03:09:23.928Z,9.21
2023-11-09T03:11:53.101Z,9.18
2023-11-09T03:14:27.256Z,9.19
2023-11-09T03:16:56.317Z,9.11
2023-11-09T03:19:29.273Z,9.20
2023-11-09T03:22:02.641Z,9.18
2023-11-09T03:24:35.352Z,9.29
2023-11-09T03:27:07.213Z,9.27
2023-11-09T03:29:40.087Z,9.34
2023-11-09T03:32:11.486Z,9.36
2023-11-09T03:34:44.256Z,9.36
2023-11-09T03:40:05.927Z,9.30
2023-11-09T03:42:35.411Z,9.42
2023-11-09T03:45:07.379Z,9.42
2023-11-09T03:47:39.075Z,9.43
2023-11-09T03:52:56.923Z,9.47
2023-11-09T03:55:34.309Z,9.50
2023-11-09T03:58:10.630Z,9.50
2023-11-09T04:03:24.493Z,9.59
2023-11-09T04:06:07.736Z,9.61
2023-11-09T04:08:36.116Z,9.68
2023-11-09T04:11:06.456Z,9.70
2023-11-09T04:16:28.070Z,9.72
2023-11-09T04:19:01.642Z,9.75
2023-11-09T04:21:32.130Z,9.69
2023-11-09T04:24:09.287Z,9.79
2023-11-09T04:26:39.001Z,9.83
2023-11-09T04:29:12.336Z,9.80
2023-11-09T04:31:45.355Z,9.87
2023-11-09T04:34:13.135Z,9.88
2023-11-09T04:36:54.633Z,9.93
2023-11-09T04:39:38.146Z,9.89
2023-11-09T04:42:10.527Z,9.92
2023-11-09T04:44:41.895Z,9.89
2023-11-09T04:47:31.950Z,9.83
2023-11-09T04:50:03.889Z,9.71
2023-11-09T04:52:32.370Z,9.81
2023-11-09T04:55:16.265Z,9.72
2023-11-09T04:58:15.337Z,9.69
2023-11-09T05:01:05.098Z,9.73
2023-11-09T05:04:30.455Z,9.72
2023-11-09T05:07:09.802Z,9.68
2023-11-09T05:09:48.586Z,9.74
2023-11-09T05:12:26.515Z,9.70
2023-11-09T05:15:21.113Z,9.78
2023-11-09T05:18:39.860Z,9.83
2023-11-09T05:21:45.250Z,9.82
2023-11-09T05:24:39.687Z,9.83
2023-11-09T05:27:24.578Z,9.78
2023-11-09T05:29:59.289Z,9.82
2023-11-09T05:32:32.082Z,9.79
2023-11-09T05:35:19.708Z,9.77
2023-11-09T05:38:24.053Z,9.81
2023-11-09T05:43:58.566Z,9.85
2023-11-09T05:47:17.572Z,9.81
2023-11-09T05:50:15.605Z,9.89
2023-11-09T05:54:14.325Z,9.95
2023-11-09T06:03:50.091Z,9.91
2023-11-09T06:06:29.654Z,9.94
2023-11-09T06:09:45.549Z,9.90
2023-11-09T06:15:37.799Z,9.92
2023-11-09T06:18:17.128Z,9.91
2023-11-09T06:21:39.407Z,9.93
2023-11-09T06:24:31.623Z,10.02
2023-11-09T06:32:49.645Z,10.07
2023-11-09T06:35:34.317Z,10.02
2023-11-09T06:38:05.465Z,9.99
2023-11-09T06:40:39.613Z,10.01
2023-11-09T06:43:31.731Z,10.00
2023-11-09T06:46:43.660Z,10.04
2023-11-09T06:49:20.377Z,10.04
2023-11-09T06:52:19.061Z,9.97
2023-11-09T06:55:06.000Z,9.94
2023-11-09T06:57:58.930Z,9.94
2023-11-09T07:00:55.155Z,9.88
2023-11-09T07:03:41.091Z,9.77
2023-11-09T07:06:30.084Z,9.86
2023-11-09T07:09:11.127Z,9.84
2023-11-09T07:12:56.320Z,9.90
2023-11-09T07:16:29.405Z,9.92
2023-11-09T07:19:07.828Z,9.87
2023-11-09T07:22:17.819Z,9.89
2023-11-09T07:25:47.958Z,9.95
2023-11-09T07:28:27.743Z,9.98
2023-11-09T07:31:25.613Z,10.01
2023-11-09T07:34:24.679Z,10.08
2023-11-09T07:37:28.808Z,10.00
2023-11-09T07:40:38.185Z,10.06
2023-11-09T07:43:13.010Z,10.04
2023-11-09T07:46:59.780Z,10.04
2023-11-09T07:50:01.066Z,10.11
2023-11-09T07:52:54.735Z,10.27
2023-11-09T07:56:55.186Z,10.36
2023-11-09T08:00:07.608Z,10.38
2023-11-09T08:03:54.765Z,10.33
2023-11-09T08:07:01.475Z,10.36
2023-11-09T08:10:59.273Z,10.45
2023-11-09T08:13:47.748Z,10.55
2023-11-09T08:17:07.353Z,10.58
2023-11-09T08:20:25.438Z,10.66
2023-11-09T08:23:22.723Z,10.53
2023-11-09T08:29:41.996Z,10.67
2023-11-09T08:32:23.697Z,10.77
2023-11-09T08:35:25.619Z,10.87
2023-11-09T08:41:57.676Z,10.94
2023-11-09T08:45:03.300Z,11.03
2023-11-09T08:48:17.637Z,11.07
2023-11-09T08:55:25.432Z,11.31
2023-11-09T08:59:19.523Z,11.48
2023-11-09T09:02:13.379Z,11.47
2023-11-09T09:05:01.249Z,11.46
2023-11-09T09:08:28.523Z,11.64
2023-11-09T09:11:24.476Z,11.75
2023-11-09T09:14:14.524Z,11.95
2023-11-09T09:16:55.971Z,12.82
2023-11-09T09:19:59.305Z,14.78
2023-11-09T09:22:57.593Z,16.28
2023-11-09T09:32:40.225Z,18.23
2023-11-09T09:35:52.304Z,18.83
2023-11-09T09:43:24.136Z,18.51
2023-11-09T09:46:47.196Z,18.00
2023-11-09T09:50:23.389Z,17.45
2023-11-09T09:54:19.730Z,16.55
2023-11-09T09:57:51.387Z,15.63
2023-11-09T10:01:19.566Z,15.30
2023-11-09T10:04:08.766Z,15.49
2023-11-09T10:07:10.887Z,15.38
2023-11-09T10:10:15.963Z,15.26
2023-11-09T10:13:49.200Z,15.00
2023-11-09T10:16:54.810Z,15.12
2023-11-09T10:19:52.396Z,15.01
2023-11-09T10:22:54.984Z,14.76
2023-11-09T10:26:13.991Z,14.66
2023-11-09T10:33:46.135Z,14.74
2023-11-09T10:37:27.898Z,14.65
2023-11-09T10:48:37.224Z,14.40
2023-11-09T10:52:07.434Z,14.14
2023-11-09T10:54:56.171Z,14.25
2023-11-09T10:57:56.774Z,14.70
2023-11-09T11:00:56.687Z,14.84
2023-11-09T11:03:56.075Z,14.68
2023-11-09T11:06:52.749Z,14.64
2023-11-09T11:10:44.423Z,14.69
2023-11-09T11:13:24.224Z,15.03
2023-11-09T11:20:01.821Z,14.67
2023-11-09T11:22:57.144Z,14.73
2023-11-09T11:25:55.269Z,14.65
2023-11-09T11:28:34.704Z,14.61
2023-11-09T11:34:51.554Z,14.38
2023-11-09T11:38:54.904Z,14.26
2023-11-09T11:42:31.896Z,13.94
2023-11-09T11:45:14.369Z,13.68
2023-11-09T11:47:55.274Z,13.79
2023-11-09T11:50:49.571Z,13.80
2023-11-09T11:53:56.755Z,13.67
2023-11-09T11:56:55.843Z,13.63
2023-11-09T12:00:54.182Z,13.44
2023-11-09T12:06:44.739Z,13.41
2023-11-09T12:10:14.184Z,13.44
2023-11-09T12:13:41.401Z,13.45
2023-11-09T12:16:25.313Z,13.55
2023-11-09T12:19:26.124Z,13.84
2023-11-09T12:22:18.706Z,13.87
2023-11-09T12:25:06.972Z,13.87
2023-11-09T12:28:20.884Z,13.93
2023-11-09T12:30:53.450Z,13.94
2023-11-09T12:34:21.010Z,13.89
2023-11-09T12:37:57.717Z,13.88
2023-11-09T12:40:41.794Z,13.71
2023-11-09T12:43:19.470Z,13.72
2023-11-09T12:47:01.767Z,13.72
2023-11-09T12:50:42.182Z,13.67
2023-11-09T12:54:48.456Z,13.42
2023-11-09T12:58:27.992Z,13.26
2023-11-09T13:01:17.045Z,13.22
2023-11-09T13:04:04.848Z,13.21
2023-11-09T13:07:19.492Z,13.25
2023-11-09T13:10:23.817Z,13.08
2023-11-09T13:13:15.903Z,13.04
2023-11-09T13:15:58.612Z,12.83
2023-11-09T13:18:33.780Z,12.87
2023-11-09T13:21:25.771Z,12.85
2023-11-09T13:28:37.721Z,12.88
2023-11-09T13:32:04.244Z,12.91
2023-11-09T13:34:53.796Z,12.93
2023-11-09T13:37:33.396Z,12.90
2023-11-09T13:40:28.197Z,12.92
2023-11-09T13:43:36.416Z,12.92
2023-11-09T13:46:24.317Z,12.89
2023-11-09T13:52:50.027Z,12.78
2023-11-09T13:59:17.846Z,12.63
2023-11-09T14:05:33.676Z,12.46
2023-11-09T14:08:28.852Z,12.39
2023-11-09T14:11:29.033Z,12.39
2023-11-09T14:17:38.140Z,12.27
2023-11-09T14:21:30.878Z,12.23
2023-11-09T14:25:01.144Z,12.13
2023-11-09T14:27:34.094Z,12.07
2023-11-09T14:38:20.046Z,11.93
2023-11-09T14:41:23.044Z,11.90
2023-11-09T14:56:15.123Z,11.66
2023-11-09T14:59:17.175Z,11.61
2023-11-09T15:02:02.034Z,11.43
2023-11-09T15:04:48.460Z,11.43
2023-11-09T15:07:27.002Z,11.42
2023-11-09T15:11:00.117Z,11.34
2023-11-09T15:13:58.291Z,11.33
2023-11-09T15:17:09.774Z,11.20
2023-11-09T15:20:04.938Z,11.14
2023-11-09T15:22:57.203Z,11.11
2023-11-09T15:25:56.457Z,11.08
2023-11-09T15:28:47.521Z,11.01
2023-11-09T15:31:31.066Z,10.91
2023-11-09T15:34:15.959Z,10.86
2023-11-09T15:37:16.992Z,10.72
2023-11-09T15:41:08.219Z,10.75
2023-11-09T15:46:20.701Z,10.60
2023-11-09T15:49:12.396Z,10.51
2023-11-09T15:52:11.092Z,10.38
2023-11-09T15:54:55.031Z,10.22
2023-11-09T16:01:36.871Z,10.05
2023-11-09T16:05:22.259Z,9.85
2023-11-09T16:13:39.521Z,9.29
2023-11-09T16:16:31.935Z,9.15
2023-11-09T16:20:29.517Z,9.01
2023-11-09T16:23:17.030Z,8.82
2023-11-09T16:27:10.543Z,8.76
2023-11-09T16:32:53.629Z,8.59
2023-11-09T16:36:08.659Z,8.63
2023-11-09T16:38:54.336Z,8.56
2023-11-09T16:42:11.667Z,8.57
2023-11-09T16:45:05.240Z,8.58
2023-11-09T16:47:52.639Z,8.56
2023-11-09T16:51:18.912Z,8.48
2023-11-09T16:54:33.372Z,8.37
2023-11-09T16:57:16.379Z,8.28
2023-11-09T17:00:21.324Z,8.26
2023-11-09T17:07:14.195Z,8.31
2023-11-09T17:10:48.979Z,8.28
2023-11-09T17:14:23.379Z,8.18
2023-11-09T17:17:38.896Z,8.14
2023-11-09T17:20:22.047Z,8.00
2023-11-09T17:23:09.210Z,7.79
2023-11-09T17:26:05.302Z,7.69
2023-11-09T17:28:35.775Z,7.55
2023-11-09T17:31:22.401Z,7.43
2023-11-09T17:34:06.041Z,7.36
2023-11-09T17:36:44.630Z,7.33
2023-11-09T17:39:46.893Z,7.29
2023-11-09T17:42:47.595Z,7.29
2023-11-09T17:45:45.009Z,7.14
2023-11-09T17:48:47.338Z,7.08
2023-11-09T17:51:36.558Z,6.97
2023-11-09T18:01:17.209Z,6.64
2023-11-09T18:04:33.417Z,6.77
2023-11-09T18:07:08.199Z,6.60
2023-11-09T18:09:47.998Z,6.47
2023-11-09T18:12:54.515Z,6.32
2023-11-09T18:16:01.645Z,6.22
2023-11-09T18:18:39.360Z,6.17
2023-11-09T18:21:22.009Z,6.11
2023-11-09T18:24:21.371Z,6.19
2023-11-09T18:26:58.444Z,6.19
2023-11-09T18:30:11.872Z,6.10
2023-11-09T18:32:49.617Z,6.19
2023-11-09T18:35:19.129Z,6.18
2023-11-09T18:37:51.160Z,6.12
2023-11-09T18:40:18.564Z,6.21
2023-11-09T18:45:39.620Z,5.97
2023-11-09T18:48:07.313Z,5.90
2023-11-09T18:53:08.041Z,5.99
2023-11-09T18:55:35.349Z,6.01
2023-11-09T18:58:28.218Z,6.11
2023-11-09T19:00:58.322Z,6.07
2023-11-09T19:06:23.426Z,5.57
2023-11-09T19:09:29.116Z,5.37
2023-11-09T19:15:33.017Z,5.19
2023-11-09T19:18:53.957Z,5.19
2023-11-09T19:24:48.399Z,5.24
2023-11-09T19:27:42.718Z,5.24
2023-11-09T19:30:38.415Z,5.16
2023-11-09T19:33:22.791Z,5.16
2023-11-09T19:36:39.115Z,5.13
2023-11-09T19:39:23.845Z,5.04
2023-11-09T19:42:24.950Z,4.90
2023-11-09T19:45:01.405Z,4.94
2023-11-09T19:48:01.289Z,4.89
2023-11-09T19:50:44.132Z,4.74
2023-11-09T19:53:29.697Z,4.81
2023-11-09T19:56:05.458Z,4.64
2023-11-09T19:58:59.192Z,4.71
2023-11-09T20:01:53.387Z,4.73
2023-11-09T20:04:36.303Z,4.64
2023-11-09T20:07:17.642Z,4.67
2023-11-09T20:10:14.783Z,4.70
2023-11-09T20:13:51.240Z,4.77
2023-11-09T20:19:23.018Z,4.74
2023-11-09T20:22:05.549Z,4.78
2023-11-09T20:24:42.141Z,4.79
2023-11-09T20:27:19.198Z,4.52
2023-11-09T20:30:07.987Z,4.33
2023-11-09T20:33:08.659Z,4.33
2023-11-09T20:40:18.449Z,4.35
2023-11-09T20:42:55.831Z,4.46
2023-11-09T20:45:27.148Z,4.47
2023-11-09T20:47:55.530Z,4.53
2023-11-09T20:50:25.377Z,4.52
2023-11-09T21:02:06.497Z,4.39
2023-11-09T21:04:44.760Z,4.44
2023-11-09T21:07:20.800Z,4.39
2023-11-09T21:13:09.557Z,4.35
2023-11-09T21:16:10.974Z,4.33
2023-11-09T21:19:08.382Z,4.36
2023-11-09T21:23:01.524Z,4.37
2023-11-09T21:26:02.040Z,4.32
2023-11-09T21:29:07.290Z,4.33
2023-11-09T21:34:48.020Z,4.25
2023-11-09T21:37:27.633Z,4.24
2023-11-09T21:40:10.003Z,4.21
2023-11-09T21:46:05.319Z,4.19
2023-11-09T21:48:44.345Z,4.14
2023-11-09T21:51:16.335Z,4.15
2023-11-09T21:54:07.774Z,4.06
2023-11-09T21:56:46.414Z,4.06
2023-11-09T21:59:16.916Z,4.05
2023-11-09T22:01:44.525Z,4.08
2023-11-09T22:04:12.307Z,4.07
2023-11-09T22:06:39.672Z,4.06
2023-11-09T22:09:08.790Z,4.01
2023-11-09T22:11:37.024Z,4.03
2023-11-09T22:14:10.396Z,4.11
2023-11-09T22:16:42.092Z,4.09
2023-11-09T22:19:10.217Z,4.15
2023-11-09T22:21:37.865Z,4.15
2023-11-09T22:24:06.829Z,4.16
2023-11-09T22:26:34.611Z,4.19
2023-11-09T22:29:02.215Z,4.14
2023-11-09T22:31:29.928Z,4.23
2023-11-09T22:33:58.662Z,4.13
2023-11-09T22:36:26.159Z,4.13
2023-11-09T22:38:53.719Z,4.16
2023-11-09T22:41:20.847Z,4.12
2023-11-09T22:43:48.655Z,4.11
2023-11-09T22:46:15.877Z,4.07
2023-11-09T22:48:43.448Z,4.04
2023-11-09T22:51:10.769Z,3.95
2023-11-09T22:53:39.349Z,3.92
2023-11-09T22:56:07.617Z,3.90
2023-11-09T22:58:35.193Z,3.91
2023-11-09T23:01:05.452Z,3.85
2023-11-09T23:03:34.051Z,3.75
2023-11-09T23:06:01.809Z,3.70
2023-11-09T23:08:31.945Z,3.61
2023-11-09T23:10:59.610Z,3.59
2023-11-09T23:13:29.502Z,3.56
2023-11-09T23:15:56.757Z,3.46
2023-11-09T23:18:24.195Z,3.47
2023-11-09T23:20:53.235Z,3.49
2023-11-09T23:23:20.873Z,3.59
2023-11-09T23:25:48.116Z,3.53
2023-11-09T23:28:15.661Z,3.52
2023-11-09T23:30:44.686Z,3.55
2023-11-09T23:33:12.233Z,3.47
2023-11-09T23:35:39.345Z,3.46
2023-11-09T23:38:06.807Z,3.45
2023-11-09T23:40:33.914Z,3.44
2023-11-09T23:43:01.323Z,3.41
2023-11-09T23:45:28.919Z,3.38
2023-11-09T23:47:56.499Z,3.43
2023-11-09T23:50:23.581Z,3.34
2023-11-09T23:52:51.076Z,3.39
2023-11-09T23:55:18.318Z,3.35
2023-11-09T23:57:46.513Z,3.35
